Terminal Aerodrome Forecast
Issued by NWS

Home | Current Version | Previous Version | Text Only | Print | Product List | Glossary On
Versions: 1 2 3 4 5 6 7 8 9 10 11 12 13 14 15 16 17 18 19 20 21 22 23 24 25 26 27 28 29 30 31 32 33 34 35 36 37 38 39
000
FTUS45 KBOU 181121
TAFAPA
TAF
KAPA 181121Z 1812/1912 18007KT P6SM BKN220
     FM181500 VRB05KT P6SM FEW120 BKN220
     FM181700 10012KT P6SM FEW110 BKN220
     FM182300 14011KT P6SM FEW120 BKN220
     FM190200 17010KT P6SM SCT140 BKN220
     FM190600 19009KT P6SM SCT100 BKN140=

USA.gov is the U.S. government's official web portal to all federal, state and local government web resources and services.